Synarep, Washington
Current Conditions -  °F | °C
As of 5:53 PM on Sunday 23 Nov 2014 (Local Time) from KOMK Reporting Station
Clear Clear  
Wind Chill: 30°   Ceiling: Unl
Heat Index: 35°   Visibility: 10mi
Dew Point: 29°   Wind: 6mph
Humidity: 78%   Direction: 130°SE
Pressure: 30.05"   Gusts: NA
Location:  48.5231°N, 119.731°W
Report Text: KOMK 240153Z AUTO 13005KT 10SM CLR 02/M02 A3005 RMK AO2 SLP188 T00171017
Loading
Personal Weather Stations






























Interactive Weather Map New forecast layout! Learn more

10-Day Weather Forecast

Advertisements
Track Severe Weather on mobile